Time;durP1;ratioP1;P1;durP2;ratioP2;P2;SDS_P1;SDS_P2;PMS_P1;PMS_P2;Temp;Humidity;BMP_temperature;BMP_pressure;BME280_temperature;BME280_humidity;BME280_pressure;Samples;Min_cycle;Max_cycle;Signal;HPM_P1;HPM_P2
2021/03/15 00:00:36;;;;;;;6.63;4.07;;;4.30;99.90;;;;;;4948963;28;20269;-76
2021/03/15 00:03:04;;;;;;;7.67;4.60;;;4.30;99.90;;;;;;4948216;28;20587;-75
2021/03/15 00:05:30;;;;;;;9.03;5.20;;;4.30;99.90;;;;;;4948444;28;20309;-75
2021/03/15 00:07:57;;;;;;;6.57;4.67;;;4.30;99.90;;;;;;4950868;28;20316;-75
2021/03/15 00:10:24;;;;;;;10.00;5.17;;;4.20;99.90;;;;;;4949662;28;20206;-75
2021/03/15 00:12:52;;;;;;;9.30;5.23;;;4.20;99.90;;;;;;4950400;28;20777;-75
2021/03/15 00:15:21;;;;;;;9.30;5.27;;;4.10;99.90;;;;;;4948655;29;20648;-75
2021/03/15 00:17:48;;;;;;;9.90;5.07;;;4.10;99.90;;;;;;4948850;28;20303;-76
2021/03/15 00:20:16;;;;;;;8.47;4.90;;;4.10;99.90;;;;;;4943946;28;20656;-75
2021/03/15 00:22:44;;;;;;;9.53;5.33;;;4.10;99.90;;;;;;4946065;29;20647;-74
2021/03/15 00:25:11;;;;;;;7.77;5.33;;;4.10;99.90;;;;;;4947152;28;20235;-75
2021/03/15 00:27:40;;;;;;;9.00;5.60;;;4.10;99.90;;;;;;4949726;29;20729;-74
2021/03/15 00:30:09;;;;;;;7.53;4.87;;;4.10;99.90;;;;;;4944800;28;20236;-74
2021/03/15 00:32:36;;;;;;;8.63;4.87;;;4.10;99.90;;;;;;4948313;29;20268;-75
2021/03/15 00:35:03;;;;;;;6.40;4.70;;;4.10;99.90;;;;;;4951630;28;20256;-74
2021/03/15 00:37:29;;;;;;;9.40;4.80;;;4.00;99.90;;;;;;4950546;29;20210;-74
2021/03/15 00:39:56;;;;;;;7.87;5.00;;;4.00;99.90;;;;;;4948536;28;20248;-76
2021/03/15 00:42:22;;;;;;;9.13;5.43;;;4.00;99.90;;;;;;4945837;28;20296;-75
2021/03/15 00:44:49;;;;;;;10.27;5.93;;;4.00;99.90;;;;;;4951577;28;20216;-75
2021/03/15 00:47:16;;;;;;;7.40;5.10;;;4.00;99.90;;;;;;4951406;28;20233;-76
2021/03/15 00:49:44;;;;;;;7.80;4.83;;;4.00;99.90;;;;;;4947085;29;20210;-75
2021/03/15 00:52:10;;;;;;;9.73;5.03;;;4.00;99.90;;;;;;4946112;28;20297;-74
2021/03/15 00:54:37;;;;;;;8.37;5.40;;;4.00;99.90;;;;;;4944077;28;20306;-74
2021/03/15 00:57:03;;;;;;;10.33;5.50;;;4.00;99.90;;;;;;4946583;29;20220;-74
2021/03/15 00:59:30;;;;;;;8.83;5.10;;;3.90;99.90;;;;;;4949905;28;20292;-74
2021/03/15 01:01:56;;;;;;;9.83;5.47;;;3.90;99.90;;;;;;4947827;28;20280;-74
2021/03/15 01:04:24;;;;;;;9.23;5.40;;;3.90;99.90;;;;;;4944733;28;20226;-75
2021/03/15 01:06:50;;;;;;;9.07;5.23;;;3.90;99.90;;;;;;4948774;28;20260;-74
2021/03/15 01:09:17;;;;;;;8.37;5.30;;;3.90;99.90;;;;;;4953821;29;20275;-74
2021/03/15 01:11:44;;;;;;;8.00;5.63;;;3.80;99.90;;;;;;4950026;28;20212;-75
2021/03/15 01:14:11;;;;;;;9.57;5.20;;;3.80;99.90;;;;;;4952928;28;20308;-75
2021/03/15 01:16:37;;;;;;;8.10;5.10;;;3.80;99.90;;;;;;4948149;28;20250;-75
2021/03/15 01:19:04;;;;;;;9.33;5.47;;;3.70;99.90;;;;;;4949792;29;20263;-75
2021/03/15 01:21:32;;;;;;;11.53;5.37;;;3.80;99.90;;;;;;4948399;28;20569;-73
2021/03/15 01:23:58;;;;;;;8.43;5.07;;;3.80;99.90;;;;;;4949381;29;20268;-74
2021/03/15 01:26:25;;;;;;;8.73;5.13;;;3.80;99.90;;;;;;4949145;28;20226;-75
2021/03/15 01:28:52;;;;;;;10.90;5.50;;;3.80;99.90;;;;;;4951459;28;20213;-75
2021/03/15 01:31:18;;;;;;;8.57;5.30;;;3.80;99.90;;;;;;4951996;29;20216;-75
2021/03/15 01:33:44;;;;;;;10.67;5.33;;;3.80;99.90;;;;;;4951900;28;20216;-74
2021/03/15 01:36:11;;;;;;;8.53;4.87;;;3.80;99.90;;;;;;4952238;28;20675;-74
2021/03/15 01:38:38;;;;;;;7.43;5.00;;;3.80;99.90;;;;;;4953868;28;20292;-74
2021/03/15 01:41:04;;;;;;;9.60;5.17;;;3.80;99.90;;;;;;4947591;28;20579;-75
2021/03/15 01:43:31;;;;;;;9.17;5.47;;;3.70;99.90;;;;;;4946248;28;20353;-75
2021/03/15 01:45:57;;;;;;;9.63;5.30;;;3.70;99.90;;;;;;4956134;28;20288;-75
2021/03/15 01:48:24;;;;;;;7.63;5.20;;;3.70;99.90;;;;;;4948050;28;20226;-75
2021/03/15 01:50:50;;;;;;;10.67;5.67;;;3.70;99.90;;;;;;4953685;28;20313;-76
2021/03/15 01:53:19;;;;;;;9.33;5.17;;;3.70;99.90;;;;;;4950379;28;20212;-74
2021/03/15 01:55:47;;;;;;;10.00;5.57;;;3.70;99.90;;;;;;4952762;28;20647;-75
2021/03/15 01:58:14;;;;;;;9.43;5.10;;;3.70;99.90;;;;;;4948582;28;20213;-76
2021/03/15 02:00:42;;;;;;;8.77;5.07;;;3.60;99.90;;;;;;4950098;29;20875;-72
2021/03/15 02:03:09;;;;;;;8.20;5.37;;;3.60;99.90;;;;;;4952272;28;20259;-72
2021/03/15 02:05:38;;;;;;;11.80;6.20;;;3.60;99.90;;;;;;4951448;28;20244;-73
2021/03/15 02:08:05;;;;;;;11.90;6.47;;;3.60;99.90;;;;;;4949472;28;20651;-72
2021/03/15 02:10:32;;;;;;;12.30;6.17;;;3.60;99.90;;;;;;4953687;28;20220;-72
2021/03/15 02:13:19;;;;;;;11.73;6.77;;;3.60;99.90;;;;;;4949263;28;20205;-72
2021/03/15 02:15:58;;;;;;;12.23;6.63;;;3.60;99.90;;;;;;4949227;29;20553;-71
2021/03/15 02:18:34;;;;;;;10.83;6.57;;;3.60;99.90;;;;;;4947319;28;20292;-71
2021/03/15 02:21:42;;;;;;;14.80;6.97;;;3.60;99.90;;;;;;4951036;29;20251;-71
2021/03/15 02:24:15;;;;;;;11.10;6.17;;;3.50;99.90;;;;;;4950089;28;20211;-73
2021/03/15 02:27:24;;;;;;;12.73;7.27;;;3.50;99.90;;;;;;4952955;28;20852;-73
2021/03/15 02:30:21;;;;;;;12.90;7.37;;;3.50;99.90;;;;;;4951686;29;20743;-72
2021/03/15 02:33:19;;;;;;;11.00;6.87;;;3.50;99.90;;;;;;4952187;28;20703;-71
2021/03/15 02:35:47;;;;;;;12.57;6.93;;;3.40;99.90;;;;;;4954522;28;20221;-72
2021/03/15 02:38:16;;;;;;;12.27;7.13;;;3.40;99.90;;;;;;4948936;29;20296;-73
2021/03/15 02:40:47;;;;;;;14.93;7.93;;;3.40;99.90;;;;;;4946546;28;20656;-72
2021/03/15 02:43:19;;;;;;;12.90;7.70;;;3.30;99.90;;;;;;4953276;28;20216;-72
2021/03/15 02:45:50;;;;;;;11.90;7.83;;;3.30;99.90;;;;;;4949163;28;20213;-73
2021/03/15 02:48:19;;;;;;;11.37;7.07;;;3.30;99.90;;;;;;4950636;29;20648;-72
2021/03/15 02:50:48;;;;;;;14.17;7.40;;;3.30;99.90;;;;;;4949581;28;20702;-72
2021/03/15 02:53:20;;;;;;;14.00;7.57;;;3.20;99.90;;;;;;4951767;28;20242;-71
2021/03/15 02:55:50;;;;;;;15.67;8.37;;;3.20;99.90;;;;;;4952286;28;20539;-72
2021/03/15 02:58:18;;;;;;;12.40;7.77;;;3.20;99.90;;;;;;4947428;28;20216;-73
2021/03/15 03:00:45;;;;;;;12.67;8.00;;;3.20;99.90;;;;;;4951897;28;20658;-71
2021/03/15 03:03:13;;;;;;;15.33;8.53;;;3.10;99.90;;;;;;4951123;28;20686;-71
2021/03/15 03:05:41;;;;;;;14.60;7.57;;;3.20;99.90;;;;;;4952778;28;20229;-71
2021/03/15 03:08:08;;;;;;;12.17;8.07;;;3.10;99.90;;;;;;4950365;28;20348;-72
2021/03/15 03:10:36;;;;;;;16.97;7.43;;;3.10;99.90;;;;;;4946246;29;20690;-71
2021/03/15 03:13:04;;;;;;;14.27;7.73;;;3.10;99.90;;;;;;4944675;29;20215;-71
2021/03/15 03:15:32;;;;;;;13.30;7.93;;;3.10;99.90;;;;;;4949911;29;20224;-71
2021/03/15 03:18:02;;;;;;;11.53;7.27;;;3.10;99.90;;;;;;4950354;28;20237;-71
2021/03/15 03:20:29;;;;;;;11.23;6.70;;;3.10;99.90;;;;;;4946604;28;20608;-71
2021/03/15 03:23:00;;;;;;;12.53;7.50;;;3.10;99.90;;;;;;4950090;28;20296;-70
2021/03/15 03:25:28;;;;;;;14.13;7.90;;;3.10;99.90;;;;;;4948019;28;20274;-72
2021/03/15 03:27:56;;;;;;;12.20;7.13;;;3.10;99.90;;;;;;4950636;28;20723;-72
2021/03/15 03:30:26;;;;;;;10.37;7.13;;;3.00;99.90;;;;;;4950954;28;20217;-72
2021/03/15 03:32:54;;;;;;;14.00;7.40;;;3.00;99.90;;;;;;4950846;28;20244;-72
2021/03/15 03:35:21;;;;;;;11.40;7.27;;;3.00;99.90;;;;;;4946881;28;20305;-72
2021/03/15 03:37:48;;;;;;;13.93;7.63;;;3.00;99.90;;;;;;4949268;29;20647;-71
2021/03/15 03:40:15;;;;;;;13.27;7.40;;;3.00;99.90;;;;;;4947228;29;20220;-72
2021/03/15 03:42:43;;;;;;;12.20;6.47;;;2.90;99.90;;;;;;4948946;29;20297;-73
2021/03/15 03:45:10;;;;;;;12.37;7.27;;;2.90;99.90;;;;;;4950788;28;20221;-73
2021/03/15 03:47:38;;;;;;;11.57;7.20;;;2.90;99.90;;;;;;4946971;28;20213;-72
2021/03/15 03:50:06;;;;;;;12.60;7.67;;;2.90;99.90;;;;;;4947927;29;20367;-72
2021/03/15 03:52:35;;;;;;;11.87;7.10;;;2.80;99.90;;;;;;4945005;28;20217;-72
2021/03/15 03:55:05;;;;;;;13.50;7.67;;;2.80;99.90;;;;;;4948660;28;20751;-72
2021/03/15 03:57:33;;;;;;;17.07;7.50;;;2.80;99.90;;;;;;4950798;28;20205;-73
2021/03/15 04:00:11;;;;;;;12.50;7.13;;;2.80;99.90;;;;;;4951063;29;20216;-72
2021/03/15 04:02:44;;;;;;;12.07;6.87;;;2.70;99.90;;;;;;4950031;29;20672;-72
2021/03/15 04:05:18;;;;;;;12.90;7.53;;;2.70;99.90;;;;;;4947717;28;20210;-72
2021/03/15 04:07:48;;;;;;;10.27;7.00;;;2.70;99.90;;;;;;4947916;29;20455;-73
2021/03/15 04:10:17;;;;;;;10.90;7.33;;;2.70;99.90;;;;;;4953167;28;20233;-72
2021/03/15 04:12:51;;;;;;;11.43;7.30;;;2.70;99.90;;;;;;4947627;29;20639;-71
2021/03/15 04:15:19;;;;;;;10.47;7.33;;;2.70;99.90;;;;;;4948389;28;20229;-72
2021/03/15 04:17:49;;;;;;;12.20;7.50;;;2.70;99.90;;;;;;4946439;28;20198;-72
2021/03/15 04:20:19;;;;;;;11.33;6.97;;;2.70;99.90;;;;;;4952134;28;20246;-73
2021/03/15 04:22:52;;;;;;;11.27;7.17;;;2.60;99.90;;;;;;4947311;28;20244;-71
2021/03/15 04:25:21;;;;;;;12.30;6.53;;;2.60;99.90;;;;;;4950345;28;20205;-71
2021/03/15 04:27:51;;;;;;;9.60;6.60;;;2.60;99.90;;;;;;4952985;28;20271;-72
2021/03/15 04:30:20;;;;;;;12.27;7.37;;;2.60;99.90;;;;;;4954179;28;20292;-71
2021/03/15 04:32:52;;;;;;;12.33;7.60;;;2.60;99.90;;;;;;4948748;28;20212;-72
2021/03/15 04:35:20;;;;;;;12.43;7.17;;;2.60;99.90;;;;;;4949184;28;20655;-70
2021/03/15 04:37:49;;;;;;;13.27;6.93;;;2.60;99.90;;;;;;4946586;28;20300;-72
2021/03/15 04:40:17;;;;;;;13.60;8.00;;;2.60;99.90;;;;;;4946146;28;20206;-70
2021/03/15 04:42:45;;;;;;;12.43;7.63;;;2.60;99.90;;;;;;4946962;28;20221;-72
2021/03/15 04:45:13;;;;;;;11.73;7.10;;;2.60;99.90;;;;;;4950672;28;20557;-72
2021/03/15 04:47:41;;;;;;;15.33;8.30;;;2.70;99.90;;;;;;4951360;28;20280;-71
2021/03/15 04:50:11;;;;;;;14.23;8.57;;;2.60;99.90;;;;;;4953948;28;20648;-72
2021/03/15 04:52:39;;;;;;;16.10;8.30;;;2.70;99.90;;;;;;4955128;28;20208;-72
2021/03/15 04:55:09;;;;;;;12.40;7.87;;;2.70;99.90;;;;;;4951962;28;20568;-72
2021/03/15 04:57:35;;;;;;;14.20;8.87;;;2.80;99.90;;;;;;4950593;28;20305;-72
2021/03/15 05:00:04;;;;;;;14.80;8.47;;;2.80;99.90;;;;;;4954172;28;20213;-72
2021/03/15 05:02:31;;;;;;;12.40;8.63;;;2.80;99.90;;;;;;4949010;28;20244;-71
2021/03/15 05:04:59;;;;;;;11.67;8.27;;;2.70;99.90;;;;;;4953001;28;20252;-70
2021/03/15 05:07:27;;;;;;;20.33;8.77;;;2.80;99.90;;;;;;4953342;28;20221;-72
2021/03/15 05:09:53;;;;;;;14.33;8.10;;;2.90;99.90;;;;;;4951019;29;20772;-71
2021/03/15 05:12:20;;;;;;;13.70;7.83;;;2.90;99.90;;;;;;4949294;29;20737;-72
2021/03/15 05:14:48;;;;;;;16.30;7.77;;;2.90;99.90;;;;;;4954221;28;20233;-72
2021/03/15 05:17:15;;;;;;;13.70;8.20;;;3.00;99.90;;;;;;4952661;28;20218;-72
2021/03/15 05:19:42;;;;;;;12.23;8.27;;;3.00;99.90;;;;;;4946174;29;20264;-72
2021/03/15 05:22:11;;;;;;;13.50;7.47;;;3.10;99.90;;;;;;4951366;28;20210;-72
2021/03/15 05:24:38;;;;;;;14.10;8.50;;;3.20;99.90;;;;;;4975720;28;20248;-71
2021/03/15 05:27:07;;;;;;;11.97;7.60;;;3.20;99.90;;;;;;4953282;29;20244;-72
2021/03/15 05:29:35;;;;;;;14.53;8.53;;;3.30;99.90;;;;;;4955185;28;20288;-71
2021/03/15 05:32:02;;;;;;;18.67;9.17;;;3.30;99.90;;;;;;4951872;29;20230;-72
2021/03/15 05:34:30;;;;;;;15.67;8.73;;;3.40;99.90;;;;;;4951106;29;20216;-72
2021/03/15 05:36:58;;;;;;;14.13;8.83;;;3.40;99.90;;;;;;4948950;28;20224;-73
2021/03/15 05:39:26;;;;;;;12.93;8.27;;;3.50;99.90;;;;;;4952034;29;20220;-73
2021/03/15 05:42:14;;;;;;;15.40;8.80;;;3.50;99.90;;;;;;4952306;28;20216;-72
2021/03/15 05:44:57;;;;;;;16.93;9.53;;;3.50;99.90;;;;;;4948442;29;20216;-72
2021/03/15 05:48:05;;;;;;;14.20;9.40;;;3.50;99.90;;;;;;4955083;28;20309;-72
2021/03/15 05:51:03;;;;;;;21.13;10.67;;;3.60;99.90;;;;;;4932262;28;20305;-73
2021/03/15 05:53:58;;;;;;;14.27;9.17;;;3.60;99.90;;;;;;4938889;28;20663;-71
2021/03/15 05:56:57;;;;;;;14.13;9.53;;;3.60;99.90;;;;;;4953612;29;20296;-72
2021/03/15 05:59:45;;;;;;;15.23;8.93;;;3.60;99.90;;;;;;4950657;28;20209;-72
2021/03/15 06:02:35;;;;;;;17.57;9.67;;;3.70;99.90;;;;;;4950449;29;20666;-73
2021/03/15 06:05:19;;;;;;;13.80;8.77;;;3.70;99.90;;;;;;4947399;29;20316;-72
2021/03/15 06:07:47;;;;;;;15.90;9.47;;;3.70;99.90;;;;;;4951191;29;20221;-74
2021/03/15 06:10:23;;;;;;;15.33;9.43;;;3.70;99.90;;;;;;4953460;28;20304;-72
2021/03/15 06:12:56;;;;;;;14.57;10.00;;;3.70;99.90;;;;;;4950542;29;20766;-72
2021/03/15 06:15:34;;;;;;;15.50;9.57;;;3.70;99.90;;;;;;4952863;28;20315;-73
2021/03/15 06:18:03;;;;;;;15.17;10.27;;;3.70;99.90;;;;;;4952839;28;20778;-73
2021/03/15 06:20:36;;;;;;;17.83;10.97;;;3.70;99.90;;;;;;4947513;28;20241;-73
2021/03/15 06:23:03;;;;;;;14.97;10.37;;;3.70;99.90;;;;;;4950399;29;20574;-72
2021/03/15 06:25:31;;;;;;;16.33;11.00;;;3.60;99.90;;;;;;4949492;28;20270;-71
2021/03/15 06:28:00;;;;;;;19.20;11.73;;;3.60;99.90;;;;;;4947367;28;20253;-72
2021/03/15 06:30:28;;;;;;;25.27;12.00;;;3.60;99.90;;;;;;4949020;28;20206;-71
2021/03/15 06:32:56;;;;;;;17.70;11.30;;;3.70;99.90;;;;;;4949411;29;20641;-71
2021/03/15 06:35:26;;;;;;;20.57;11.40;;;3.70;99.90;;;;;;4947112;29;20210;-71
2021/03/15 06:37:53;;;;;;;20.00;12.47;;;3.70;99.90;;;;;;4951143;28;20251;-72
2021/03/15 06:40:22;;;;;;;21.03;11.30;;;3.70;99.90;;;;;;4948090;29;20205;-72
2021/03/15 06:42:51;;;;;;;20.90;12.23;;;3.80;99.90;;;;;;4950896;28;20217;-72
2021/03/15 06:45:19;;;;;;;26.20;12.90;;;3.90;99.90;;;;;;4948968;28;20845;-73
2021/03/15 06:47:48;;;;;;;21.73;12.67;;;3.90;99.90;;;;;;4951871;28;20233;-74
2021/03/15 06:50:15;;;;;;;23.20;12.57;;;4.00;99.90;;;;;;4949552;28;20209;-71
2021/03/15 06:52:59;;;;;;;24.83;13.93;;;4.00;99.90;;;;;;4948904;29;20210;-71
2021/03/15 06:55:30;;;;;;;21.63;12.80;;;4.00;99.90;;;;;;4945457;28;20240;-72
2021/03/15 06:57:57;;;;;;;22.33;13.60;;;4.00;99.90;;;;;;4952137;28;20276;-73
2021/03/15 07:00:26;;;;;;;23.93;14.50;;;4.00;99.90;;;;;;4947247;28;20220;-73
2021/03/15 07:03:00;;;;;;;22.87;13.47;;;4.10;99.90;;;;;;4945685;28;20216;-76
2021/03/15 07:05:28;;;;;;;25.87;14.30;;;4.10;99.90;;;;;;4944531;29;20219;-73
2021/03/15 07:07:56;;;;;;;27.20;15.30;;;4.10;99.90;;;;;;4946470;28;20241;-74
2021/03/15 07:10:25;;;;;;;26.87;16.10;;;4.20;99.90;;;;;;4942692;28;20224;-67
2021/03/15 07:13:08;;;;;;;29.37;16.17;;;4.10;99.90;;;;;;4946084;28;20743;-70
2021/03/15 07:15:35;;;;;;;28.47;16.57;;;4.20;99.90;;;;;;4945166;28;20214;-74
2021/03/15 07:18:13;;;;;;;28.07;16.87;;;4.30;99.90;;;;;;4943674;28;20301;-74
2021/03/15 07:20:43;;;;;;;33.50;17.07;;;4.30;99.90;;;;;;4942679;28;20327;-72
2021/03/15 07:23:10;;;;;;;30.33;18.57;;;4.30;99.90;;;;;;4942747;28;20714;-70
2021/03/15 07:25:36;;;;;;;33.37;17.17;;;4.40;99.90;;;;;;4943610;28;20288;-75
2021/03/15 07:28:04;;;;;;;29.00;16.13;;;4.30;99.90;;;;;;4938975;28;20253;-72
2021/03/15 07:30:34;;;;;;;26.97;16.90;;;4.30;99.90;;;;;;4949520;28;20205;-74
2021/03/15 07:33:03;;;;;;;26.10;16.27;;;4.40;99.90;;;;;;4948692;29;20214;-72
2021/03/15 07:35:32;;;;;;;35.23;17.63;;;4.40;99.90;;;;;;4947131;29;20228;-71
2021/03/15 07:37:59;;;;;;;31.67;17.90;;;4.40;99.90;;;;;;4946439;28;20305;-71
2021/03/15 07:40:31;;;;;;;28.80;17.13;;;4.40;99.90;;;;;;4948927;28;20213;-72
2021/03/15 07:42:59;;;;;;;29.97;16.90;;;4.40;99.90;;;;;;4944514;28;20233;-74
2021/03/15 07:45:34;;;;;;;27.13;17.10;;;4.50;99.90;;;;;;4947838;28;20273;-70
2021/03/15 07:48:19;;;;;;;27.50;17.50;;;4.60;99.90;;;;;;4945089;28;20232;-72
2021/03/15 07:50:58;;;;;;;27.93;16.30;;;4.70;99.90;;;;;;4950855;28;20217;-72
2021/03/15 07:53:41;;;;;;;29.27;16.37;;;4.70;99.90;;;;;;4943361;29;20678;-73
2021/03/15 07:56:09;;;;;;;28.23;15.23;;;4.80;99.90;;;;;;4935634;28;20304;-76
2021/03/15 07:58:38;;;;;;;25.63;15.03;;;4.90;99.90;;;;;;4939674;28;20663;-73
2021/03/15 08:01:07;;;;;;;32.17;15.87;;;4.90;99.90;;;;;;4943358;28;20213;-72
2021/03/15 08:03:36;;;;;;;25.47;15.50;;;4.90;99.90;;;;;;4940835;28;20577;-72
2021/03/15 08:06:04;;;;;;;29.03;16.70;;;4.90;99.90;;;;;;4948755;28;20268;-72
2021/03/15 08:08:30;;;;;;;32.57;17.30;;;4.90;99.90;;;;;;4948779;28;20296;-75
2021/03/15 08:10:57;;;;;;;24.80;16.23;;;4.90;99.90;;;;;;4947013;28;20305;-74
2021/03/15 08:13:27;;;;;;;25.10;16.27;;;5.00;99.90;;;;;;4937392;29;20229;-75
2021/03/15 08:15:59;;;;;;;33.00;17.17;;;5.00;99.90;;;;;;4945619;29;20285;-74
2021/03/15 08:18:26;;;;;;;27.30;17.60;;;4.90;99.90;;;;;;4957136;28;20317;-76
2021/03/15 08:21:01;;;;;;;26.57;16.83;;;4.90;99.90;;;;;;4944826;28;20324;-75
2021/03/15 08:23:29;;;;;;;28.80;16.97;;;5.00;99.90;;;;;;4947355;29;20205;-73
2021/03/15 08:26:03;;;;;;;26.80;16.77;;;5.00;99.90;;;;;;4949455;28;20224;-76
2021/03/15 08:28:32;;;;;;;26.73;16.83;;;5.10;99.90;;;;;;4942622;29;20213;-75
2021/03/15 08:31:03;;;;;;;28.87;17.07;;;5.20;99.90;;;;;;4948328;28;20237;-73
2021/03/15 08:33:29;;;;;;;26.37;16.97;;;5.30;99.90;;;;;;4951438;29;20241;-75
2021/03/15 08:35:57;;;;;;;27.30;16.90;;;5.40;99.90;;;;;;4953602;29;20262;-77
2021/03/15 08:38:32;;;;;;;27.43;17.07;;;5.40;99.90;;;;;;4944507;29;20249;-76
2021/03/15 08:41:10;;;;;;;25.03;17.23;;;5.50;99.90;;;;;;4953612;28;20247;-73
2021/03/15 08:43:39;;;;;;;29.27;17.23;;;5.50;99.90;;;;;;4951331;29;20292;-74
2021/03/15 08:46:07;;;;;;;24.00;14.80;;;5.50;99.90;;;;;;4950523;28;20691;-75
2021/03/15 08:48:53;;;;;;;24.33;13.80;;;5.70;99.90;;;;;;4942538;28;20276;-75
2021/03/15 08:51:57;;;;;;;25.60;14.70;;;5.80;99.90;;;;;;4949363;28;20209;-73
2021/03/15 08:54:40;;;;;;;25.27;14.23;;;5.80;99.90;;;;;;4952450;28;20213;-74
2021/03/15 08:57:28;;;;;;;22.80;14.10;;;5.90;99.90;;;;;;4955488;28;20705;-75
2021/03/15 08:59:55;;;;;;;22.33;14.23;;;6.00;99.90;;;;;;4947562;28;20219;-75
2021/03/15 09:02:34;;;;;;;23.87;14.10;;;6.20;99.90;;;;;;4952519;28;20311;-75
2021/03/15 09:05:19;;;;;;;23.13;13.57;;;6.50;99.90;;;;;;4948402;28;20292;-74
2021/03/15 09:07:46;;;;;;;24.80;14.33;;;6.50;99.90;;;;;;4951764;28;20722;-75
2021/03/15 09:10:44;;;;;;;23.53;14.57;;;6.60;99.90;;;;;;4950986;28;20220;-76
2021/03/15 09:13:29;;;;;;;24.33;13.67;;;6.60;99.90;;;;;;4950303;28;20214;-75
2021/03/15 09:16:04;;;;;;;22.87;13.50;;;6.60;99.90;;;;;;4955883;28;20268;-76
2021/03/15 09:18:49;;;;;;;21.33;14.17;;;6.60;99.90;;;;;;4951616;28;20686;-75
2021/03/15 09:21:49;;;;;;;22.47;13.27;;;6.60;99.90;;;;;;4953805;28;20205;-76
2021/03/15 09:24:53;;;;;;;19.20;12.90;;;6.70;99.90;;;;;;4949470;28;20572;-76
2021/03/15 09:27:37;;;;;;;21.80;13.03;;;6.70;99.90;;;;;;4941973;28;20228;-76
2021/03/15 09:30:10;;;;;;;20.07;12.90;;;6.80;99.90;;;;;;4945081;28;20244;-77
2021/03/15 09:32:38;;;;;;;18.60;11.47;;;6.90;99.90;;;;;;4951202;28;20660;-77
2021/03/15 09:35:18;;;;;;;17.40;11.40;;;7.10;99.90;;;;;;4955547;28;20671;-76
2021/03/15 09:37:49;;;;;;;16.07;11.27;;;7.10;99.90;;;;;;4954656;28;20293;-76
2021/03/15 09:40:18;;;;;;;21.43;12.67;;;7.20;99.90;;;;;;4947562;28;20690;-74
2021/03/15 09:42:46;;;;;;;19.97;12.30;;;7.20;99.90;;;;;;4948095;28;20214;-74
2021/03/15 09:45:22;;;;;;;17.37;11.80;;;7.20;99.90;;;;;;4951323;28;20273;-77
2021/03/15 09:47:49;;;;;;;16.90;11.63;;;7.30;99.90;;;;;;4949982;28;20256;-77
2021/03/15 09:50:20;;;;;;;21.43;12.70;;;7.70;99.90;;;;;;4950916;28;20616;-76
2021/03/15 09:52:46;;;;;;;17.87;12.33;;;8.60;99.90;;;;;;4951650;28;20277;-76
2021/03/15 09:55:13;;;;;;;19.50;12.93;;;9.60;99.90;;;;;;4952173;28;20615;-76
2021/03/15 09:57:41;;;;;;;19.23;11.87;;;11.10;99.90;;;;;;4951515;28;20376;-76
2021/03/15 10:00:10;;;;;;;17.93;12.10;;;11.60;99.90;;;;;;4954162;28;20213;-74
2021/03/15 10:02:38;;;;;;;17.97;12.57;;;11.60;98.80;;;;;;4949439;29;20268;-76
2021/03/15 10:05:07;;;;;;;19.87;12.53;;;11.50;96.70;;;;;;4948591;29;20214;-75
2021/03/15 10:07:40;;;;;;;19.30;12.53;;;11.20;97.00;;;;;;4952954;28;20628;-76
2021/03/15 10:10:12;;;;;;;19.57;12.70;;;11.10;97.10;;;;;;4951408;28;20247;-76
2021/03/15 10:12:41;;;;;;;18.47;12.53;;;11.50;99.40;;;;;;4948343;28;20213;-76
2021/03/15 10:15:09;;;;;;;20.23;14.13;;;12.10;96.60;;;;;;4950328;28;20229;-75
2021/03/15 10:17:36;;;;;;;17.90;12.23;;;12.40;93.20;;;;;;4950302;28;20494;-75
2021/03/15 10:20:04;;;;;;;22.07;14.10;;;12.60;92.40;;;;;;4947815;28;20836;-75
2021/03/15 10:22:31;;;;;;;22.37;15.27;;;12.70;90.60;;;;;;4951833;28;20269;-76
2021/03/15 10:24:57;;;;;;;20.57;15.47;;;12.70;90.20;;;;;;4951314;28;20223;-77
2021/03/15 10:27:25;;;;;;;18.87;13.90;;;12.50;88.10;;;;;;4951372;28;20308;-77
2021/03/15 10:30:06;;;;;;;18.70;13.73;;;12.40;90.60;;;;;;4946459;28;20353;-77
2021/03/15 10:32:33;;;;;;;21.70;14.47;;;13.00;91.30;;;;;;4955045;28;20297;-78
2021/03/15 10:35:00;;;;;;;19.27;13.60;;;13.80;91.20;;;;;;4949735;28;20210;-75
2021/03/15 10:37:31;;;;;;;21.87;13.93;;;14.80;81.20;;;;;;4947922;28;20296;-75
2021/03/15 10:39:59;;;;;;;21.83;13.80;;;15.00;73.80;;;;;;4944358;28;20212;-76
2021/03/15 10:42:25;;;;;;;16.83;12.80;;;15.30;72.90;;;;;;4950558;29;20217;-76
2021/03/15 10:44:54;;;;;;;19.33;12.83;;;15.30;68.80;;;;;;4949745;29;20791;-76
2021/03/15 10:47:28;;;;;;;17.53;12.17;;;15.50;70.10;;;;;;4943593;28;20229;-76
2021/03/15 10:49:55;;;;;;;16.13;11.27;;;17.10;67.50;;;;;;4948568;29;20236;-77
2021/03/15 10:52:31;;;;;;;15.47;10.73;;;19.90;62.80;;;;;;4954726;28;20698;-76
2021/03/15 10:55:10;;;;;;;12.90;10.73;;;23.30;50.40;;;;;;4948510;28;20589;-75
2021/03/15 10:57:36;;;;;;;14.10;10.93;;;26.70;42.60;;;;;;4936826;28;20552;-75
2021/03/15 11:00:23;;;;;;;12.45;9.90;;;29.00;36.40;;;;;;4949330;29;20212;-75
2021/03/15 11:03:00;;;;;;;14.60;10.50;;;28.90;34.10;;;;;;5107624;27;904052;-76
2021/03/15 11:05:26;;;;;;;11.75;10.45;;;28.70;34.60;;;;;;5129446;28;20310;-75
2021/03/15 11:07:53;;;;;;;15.68;10.52;;;29.10;33.70;;;;;;5129794;28;20203;-75
2021/03/15 11:10:23;;;;;;;13.15;10.13;;;30.10;32.10;;;;;;5130272;28;20237;-76
2021/03/15 11:12:52;;;;;;;10.98;8.55;;;31.10;31.20;;;;;;5130862;28;20238;-76
2021/03/15 11:15:32;;;;;;;12.65;9.50;;;32.60;29.80;;;;;;5116687;28;20274;-76
2021/03/15 11:18:09;;;;;;;10.57;8.70;;;34.00;28.10;;;;;;5107202;28;20212;-76
2021/03/15 11:20:48;;;;;;;11.30;9.32;;;35.00;27.10;;;;;;5115462;28;20663;-76
2021/03/15 11:23:26;;;;;;;11.85;8.52;;;35.50;26.50;;;;;;5110768;28;20219;-72
2021/03/15 11:25:59;;;;;;;10.00;8.45;;;34.50;26.00;;;;;;5111919;28;20210;-74
2021/03/15 11:28:33;;;;;;;10.77;8.70;;;32.40;27.20;;;;;;5120229;28;20653;-73
2021/03/15 11:31:00;;;;;;;9.70;8.30;;;30.40;28.20;;;;;;5113228;28;20644;-73
2021/03/15 11:33:28;;;;;;;10.45;8.38;;;29.60;29.50;;;;;;5117324;28;20214;-73
2021/03/15 11:35:57;;;;;;;11.05;8.55;;;29.40;29.50;;;;;;5109401;28;20215;-73
2021/03/15 11:38:24;;;;;;;11.90;8.88;;;29.80;29.10;;;;;;5109304;28;20200;-74
2021/03/15 11:40:52;;;;;;;11.98;9.68;;;30.10;28.40;;;;;;5109899;28;20227;-72
2021/03/15 11:43:18;;;;;;;11.50;9.57;;;28.90;28.30;;;;;;5109479;28;20257;-72
2021/03/15 11:45:45;;;;;;;13.77;9.95;;;27.40;29.40;;;;;;5111439;28;20664;-75
2021/03/15 11:48:12;;;;;;;11.68;9.45;;;26.20;30.90;;;;;;5111585;28;20539;-73
2021/03/15 11:50:40;;;;;;;10.60;9.43;;;24.90;32.20;;;;;;5115136;28;20208;-73
2021/03/15 11:53:07;;;;;;;17.48;9.85;;;23.40;33.20;;;;;;5110054;28;20524;-74
2021/03/15 11:55:35;;;;;;;12.93;8.85;;;21.90;34.90;;;;;;5109468;28;20633;-74
2021/03/15 11:58:01;;;;;;;10.35;7.97;;;20.70;36.90;;;;;;5103134;28;20247;-72
2021/03/15 12:00:28;;;;;;;11.15;8.35;;;19.60;40.10;;;;;;5109847;28;20283;-75
2021/03/15 12:02:55;;;;;;;11.45;8.65;;;18.80;39.00;;;;;;5109658;28;20232;-73
2021/03/15 12:05:23;;;;;;;10.77;8.25;;;18.20;39.90;;;;;;5092704;28;20200;-73
2021/03/15 12:07:51;;;;;;;12.05;8.23;;;17.50;40.90;;;;;;5113318;28;20227;-75
2021/03/15 12:10:18;;;;;;;11.43;8.10;;;16.80;42.00;;;;;;5115378;28;20215;-74
2021/03/15 12:12:45;;;;;;;13.13;8.83;;;16.80;45.70;;;;;;5108579;28;20201;-78
2021/03/15 12:15:14;;;;;;;12.33;9.30;;;17.20;45.90;;;;;;5111058;28;20311;-79
2021/03/15 12:17:44;;;;;;;12.37;8.77;;;17.50;43.50;;;;;;5107077;28;20238;-77
2021/03/15 12:20:11;;;;;;;9.63;8.60;;;17.50;42.50;;;;;;5106082;28;20203;-75
2021/03/15 12:22:38;;;;;;;9.80;7.63;;;17.10;43.10;;;;;;5099767;28;20236;-73
2021/03/15 12:25:07;;;;;;;10.87;7.43;;;16.80;43.20;;;;;;5097762;28;20556;-76
2021/03/15 12:27:34;;;;;;;13.00;7.40;;;16.60;44.10;;;;;;5104283;28;20291;-74
2021/03/15 12:30:00;;;;;;;9.23;6.83;;;16.30;43.50;;;;;;5097204;28;20257;-77
2021/03/15 12:32:27;;;;;;;8.30;6.80;;;16.50;45.80;;;;;;5100053;28;20228;-75
2021/03/15 12:34:53;;;;;;;10.70;6.80;;;16.30;43.00;;;;;;5103534;28;20209;-75
2021/03/15 12:37:20;;;;;;;9.53;6.83;;;15.80;43.90;;;;;;5096199;28;20226;-73
2021/03/15 12:39:48;;;;;;;8.43;6.77;;;15.20;44.50;;;;;;5102539;28;20289;-73
2021/03/15 12:42:23;;;;;;;10.47;7.47;;;14.70;45.70;;;;;;5103883;28;20257;-75
2021/03/15 12:44:49;;;;;;;10.47;7.07;;;14.10;46.70;;;;;;5095773;28;20231;-74
2021/03/15 12:47:18;;;;;;;10.07;6.90;;;13.80;49.60;;;;;;5096251;28;20344;-73
2021/03/15 12:49:47;;;;;;;12.13;7.40;;;13.60;48.30;;;;;;5102687;28;20209;-74
2021/03/15 12:52:15;;;;;;;11.13;7.47;;;13.30;49.20;;;;;;5096258;28;20260;-73
2021/03/15 12:54:41;;;;;;;12.10;7.27;;;13.50;52.40;;;;;;5096835;28;20575;-74
2021/03/15 12:57:08;;;;;;;10.10;7.30;;;14.10;53.10;;;;;;5092876;28;20231;-74
2021/03/15 12:59:35;;;;;;;10.53;6.73;;;14.80;51.00;;;;;;5094744;28;20665;-74
2021/03/15 13:02:03;;;;;;;9.50;6.80;;;15.50;49.00;;;;;;5094472;28;20339;-74